createdAt,value
2017-11-21T00:00:49.512Z,92.28
2017-11-21T00:01:59.785Z,92.47
2017-11-21T00:03:09.880Z,92.47
2017-11-21T00:04:19.883Z,92.66
2017-11-21T00:05:29.797Z,92.57
2017-11-21T00:06:39.810Z,92.66
2017-11-21T00:07:49.854Z,92.57
2017-11-21T00:09:00.178Z,92.47
2017-11-21T00:10:10.485Z,92.66
2017-11-21T00:11:20.811Z,92.57
2017-11-21T00:12:31.102Z,92.85
2017-11-21T00:13:41.386Z,92.57
2017-11-21T00:14:51.385Z,93.04
2017-11-21T00:16:01.761Z,92.76
2017-11-21T00:17:12.079Z,92.76
2017-11-21T00:18:22.115Z,93.41
2017-11-21T00:19:32.396Z,92.76
2017-11-21T00:20:42.681Z,92.85
2017-11-21T00:21:52.983Z,93.51
2017-11-21T00:23:02.764Z,93.32
2017-11-21T00:24:13.068Z,93.04
2017-11-21T00:25:23.463Z,93.13
2017-11-21T00:26:33.779Z,93.23
2017-11-21T00:27:43.773Z,93.32
2017-11-21T00:28:54.216Z,93.13
2017-11-21T00:30:04.604Z,93.23
2017-11-21T00:31:14.634Z,93.04
2017-11-21T00:32:24.885Z,93.23
2017-11-21T00:33:35.021Z,93.13
2017-11-21T00:34:45.304Z,93.04
2017-11-21T00:35:55.331Z,93.04
2017-11-21T00:37:04.980Z,93.04
2017-11-21T00:38:14.964Z,93.04
2017-11-21T00:39:25.071Z,92.85
2017-11-21T00:40:35.080Z,93.51
2017-11-21T00:41:45.357Z,93.32
2017-11-21T00:42:55.672Z,93.41
2017-11-21T00:44:05.700Z,93.13
2017-11-21T00:45:15.988Z,93.13
2017-11-21T00:46:26.260Z,93.13
2017-11-21T00:47:36.245Z,92.85
2017-11-21T00:48:46.591Z,93.51
2017-11-21T00:49:56.868Z,93.04
2017-11-21T00:51:06.503Z,93.23
2017-11-21T00:52:16.876Z,93.04
2017-11-21T00:53:27.129Z,93.41
2017-11-21T00:54:37.147Z,93.7
2017-11-21T00:56:19.301Z,93.51
2017-11-21T00:57:29.642Z,93.7
2017-11-21T00:58:39.901Z,93.51
2017-11-21T00:59:49.932Z,92.94
2017-11-21T01:01:00.453Z,92.94
2017-11-21T01:02:10.360Z,93.51
2017-11-21T01:03:20.804Z,93.41
2017-11-21T01:04:30.783Z,93.51
2017-11-21T01:05:40.777Z,93.04
2017-11-21T01:06:50.601Z,93.41
2017-11-21T01:08:00.745Z,93.32
2017-11-21T01:09:10.748Z,93.51
2017-11-21T01:10:21.048Z,93.61
2017-11-21T01:11:31.375Z,93.23
2017-11-21T01:12:41.636Z,93.13
2017-11-21T01:13:51.908Z,93.41
2017-11-21T01:15:01.893Z,93.41
2017-11-21T01:16:11.943Z,93.04
2017-11-21T01:17:21.964Z,93.41
2017-11-21T01:18:32.211Z,93.32
2017-11-21T01:19:42.522Z,93.32
2017-11-21T01:20:52.754Z,93.23
2017-11-21T01:22:03.033Z,93.51
2017-11-21T01:23:13.305Z,93.32
2017-11-21T01:24:23.356Z,93.51
2017-11-21T01:25:33.641Z,93.41
2017-11-21T01:26:43.894Z,93.51
2017-11-21T01:27:54.130Z,93.41
2017-11-21T01:29:04.391Z,93.51
2017-11-21T01:30:14.659Z,93.7
2017-11-21T01:31:24.927Z,93.51
2017-11-21T01:32:35.196Z,93.51
2017-11-21T01:33:45.716Z,93.7
2017-11-21T01:34:55.374Z,93.61
2017-11-21T01:36:05.647Z,93.99
2017-11-21T01:37:15.902Z,93.61
2017-11-21T01:38:25.902Z,93.51
2017-11-21T01:39:36.215Z,93.61
2017-11-21T01:40:46.251Z,93.61
2017-11-21T01:41:56.559Z,93.51
2017-11-21T01:43:06.824Z,93.41
2017-11-21T01:44:17.077Z,93.51
2017-11-21T01:45:27.358Z,94.08
2017-11-21T01:46:37.613Z,93.41
2017-11-21T01:47:47.864Z,93.61
2017-11-21T01:48:58.145Z,93.41
2017-11-21T01:50:08.416Z,93.56
2017-11-21T01:51:18.694Z,93.56
2017-11-21T01:52:28.955Z,94.13
2017-11-21T01:53:39.242Z,93.46
2017-11-21T01:54:49.321Z,93.75
2017-11-21T01:55:59.699Z,93.94
2017-11-21T01:57:09.966Z,93.84
2017-11-21T01:58:20.231Z,93.84
2017-11-21T01:59:30.543Z,93.84
2017-11-21T02:00:40.826Z,93.75
2017-11-21T02:01:51.072Z,93.75
2017-11-21T02:03:01.341Z,93.75
2017-11-21T02:04:11.244Z,93.75
2017-11-21T02:05:21.515Z,93.46
2017-11-21T02:06:31.612Z,93.56
2017-11-21T02:07:41.960Z,93.46
2017-11-21T02:08:52.342Z,93.75
2017-11-21T02:10:01.969Z,93.56
2017-11-21T02:11:12.221Z,93.84
2017-11-21T02:12:22.606Z,93.65
2017-11-21T02:13:32.625Z,93.75
2017-11-21T02:14:42.888Z,93.94
2017-11-21T02:15:53.203Z,93.84
2017-11-21T02:17:03.497Z,93.46
2017-11-21T02:18:13.776Z,93.94
2017-11-21T02:19:24.047Z,93.46
2017-11-21T02:20:33.990Z,93.51
2017-11-21T02:21:43.866Z,94.03
2017-11-21T02:22:54.158Z,94.27
2017-11-21T02:24:04.430Z,94.03
2017-11-21T02:25:14.702Z,94.23
2017-11-21T02:26:25.179Z,93.46
2017-11-21T02:27:35.431Z,93.84
2017-11-21T02:28:45.694Z,93.84
2017-11-21T02:29:55.998Z,93.46
2017-11-21T02:31:06.734Z,93.65
2017-11-21T02:32:16.834Z,94.32
2017-11-21T02:33:26.953Z,94.03
2017-11-21T02:34:37.275Z,94.42
2017-11-21T02:35:47.525Z,94.23
2017-11-21T02:36:57.567Z,93.84
2017-11-21T02:38:07.944Z,94.03
2017-11-21T02:39:17.953Z,94.03
2017-11-21T02:40:28.211Z,93.94
2017-11-21T02:41:38.525Z,94.03
2017-11-21T02:42:48.785Z,94.23
2017-11-21T02:43:58.780Z,94.6
2017-11-21T02:45:09.606Z,94.42
2017-11-21T02:46:19.940Z,94.6
2017-11-21T02:47:30.214Z,94.32
2017-11-21T02:48:40.289Z,94.32
2017-11-21T02:49:50.561Z,94.32
2017-11-21T02:51:00.863Z,94.32
2017-11-21T02:52:10.772Z,94.32
2017-11-21T02:53:21.029Z,94.51
2017-11-21T02:54:31.371Z,94.7
2017-11-21T02:55:41.663Z,94.7
2017-11-21T02:56:51.948Z,94.79
2017-11-21T02:58:01.990Z,94.7
2017-11-21T02:59:12.001Z,94.23
2017-11-21T03:00:22.250Z,94.89
2017-11-21T03:01:32.249Z,94.89
2017-11-21T03:02:42.231Z,95.17
2017-11-21T03:03:52.480Z,95.17
2017-11-21T03:05:02.897Z,94.98
2017-11-21T03:06:12.870Z,94.89
2017-11-21T03:07:23.159Z,94.89
2017-11-21T03:08:33.488Z,95.07
2017-11-21T03:09:43.445Z,94.89
2017-11-21T03:10:53.738Z,94.7
2017-11-21T03:12:03.889Z,94.79
2017-11-21T03:13:14.126Z,94.79
2017-11-21T03:14:24.096Z,94.79
2017-11-21T03:15:34.366Z,94.7
2017-11-21T03:16:44.588Z,94.79
2017-11-21T03:17:54.860Z,94.7
2017-11-21T03:19:04.790Z,94.51
2017-11-21T03:20:15.036Z,94.6
2017-11-21T03:21:25.325Z,94.6
2017-11-21T03:22:35.324Z,94.51
2017-11-21T03:23:45.585Z,94.79
2017-11-21T03:24:55.889Z,95.17
2017-11-21T03:26:05.891Z,95.17
2017-11-21T03:27:16.167Z,94.51
2017-11-21T03:28:26.439Z,94.79
2017-11-21T03:29:36.755Z,95.07
2017-11-21T03:30:46.831Z,95.46
2017-11-21T03:31:56.556Z,95.27
2017-11-21T03:33:06.813Z,95.27
2017-11-21T03:34:16.829Z,95.27
2017-11-21T03:35:27.098Z,95.17
2017-11-21T03:36:37.143Z,95.07
2017-11-21T03:37:47.227Z,95.07
2017-11-21T03:38:57.486Z,95.07
2017-11-21T03:40:07.739Z,95.27
2017-11-21T03:41:18.074Z,95.27
2017-11-21T03:42:28.368Z,95.07
2017-11-21T03:43:38.626Z,94.89
2017-11-21T03:44:48.860Z,95.07
2017-11-21T03:45:58.600Z,95.27
2017-11-21T03:47:08.980Z,95.27
2017-11-21T03:48:19.317Z,95.27
2017-11-21T03:49:29.568Z,95.17
2017-11-21T03:50:39.870Z,95.46
2017-11-21T03:51:50.500Z,95.17
2017-11-21T03:53:00.786Z,95.36
2017-11-21T03:54:11.129Z,95.27
2017-11-21T03:55:21.125Z,95.65
2017-11-21T03:56:31.384Z,95.65
2017-11-21T03:57:41.678Z,95.65
2017-11-21T03:58:51.960Z,95.84
2017-11-21T04:00:02.357Z,95.36
2017-11-21T04:01:12.333Z,95.46
2017-11-21T04:02:22.574Z,96.12
2017-11-21T04:03:32.474Z,96.03
2017-11-21T04:04:42.775Z,95.74
2017-11-21T04:05:53.049Z,96.03
2017-11-21T04:07:03.399Z,95.74
2017-11-21T04:08:13.408Z,95.84
2017-11-21T04:09:23.715Z,95.93
2017-11-21T04:10:33.922Z,95.93
2017-11-21T04:11:44.182Z,95.93
2017-11-21T04:12:54.423Z,96.31
2017-11-21T04:14:04.387Z,96.31
2017-11-21T04:15:14.370Z,96.12
2017-11-21T04:16:24.612Z,96.59
2017-11-21T04:17:34.897Z,96.41
2017-11-21T04:18:44.987Z,96.78
2017-11-21T04:19:55.257Z,96.78
2017-11-21T04:21:05.776Z,96.31
2017-11-21T04:22:15.735Z,96.59
2017-11-21T04:23:25.993Z,96.69
2017-11-21T04:24:36.241Z,96.31
2017-11-21T04:25:46.538Z,96.31
2017-11-21T04:26:56.669Z,96.22
2017-11-21T04:28:06.916Z,96.5
2017-11-21T04:29:17.155Z,96.5
2017-11-21T04:30:27.454Z,96.31
2017-11-21T04:31:37.735Z,96.59
2017-11-21T04:32:48.034Z,96.31
2017-11-21T04:33:57.945Z,96.22
2017-11-21T04:35:08.198Z,96.31
2017-11-21T04:36:17.963Z,96.41
2017-11-21T04:37:28.309Z,96.41
2017-11-21T04:38:38.683Z,96.31
2017-11-21T04:39:48.982Z,96.41
2017-11-21T04:40:59.297Z,96.31
2017-11-21T04:42:09.172Z,96.88
2017-11-21T04:43:18.936Z,96.22
2017-11-21T04:44:29.217Z,96.5
2017-11-21T04:45:38.686Z,96.31
2017-11-21T04:46:48.693Z,96.5
2017-11-21T04:47:58.964Z,96.69
2017-11-21T04:49:09.265Z,96.22
2017-11-21T04:50:19.239Z,96.5
2017-11-21T04:51:29.299Z,96.31
2017-11-21T04:52:39.579Z,96.5
2017-11-21T04:53:49.881Z,96.78
2017-11-21T04:54:59.506Z,96.59
2017-11-21T04:56:09.792Z,96.22
2017-11-21T04:57:20.047Z,96.31
2017-11-21T04:58:30.076Z,96.59
2017-11-21T04:59:39.798Z,96.12
2017-11-21T05:00:49.820Z,96.5
2017-11-21T05:02:00.089Z,96.5
2017-11-21T05:03:09.735Z,96.22
2017-11-21T05:04:20.019Z,96.59
2017-11-21T05:05:30.420Z,96.97
2017-11-21T05:06:40.389Z,96.41
2017-11-21T05:07:50.764Z,96.78
2017-11-21T05:09:00.998Z,96.41
2017-11-21T05:10:10.917Z,96.78
2017-11-21T05:11:21.205Z,97.07
2017-11-21T05:12:31.305Z,97.12
2017-11-21T05:13:41.304Z,97.12
2017-11-21T05:14:51.555Z,97.22
2017-11-21T05:16:01.831Z,97.26
2017-11-21T05:17:12.241Z,96.97
2017-11-21T05:18:22.227Z,97.02
2017-11-21T05:19:32.509Z,96.93
2017-11-21T05:20:42.885Z,97.12
2017-11-21T05:21:52.954Z,96.83
2017-11-21T05:23:03.281Z,97.5
2017-11-21T05:24:13.177Z,97.36
2017-11-21T05:25:22.799Z,97.5
2017-11-21T05:26:33.081Z,97.41
2017-11-21T05:27:43.354Z,97.6
2017-11-21T05:28:53.434Z,97.6
2017-11-21T05:30:03.746Z,97.22
2017-11-21T05:31:13.984Z,97.22
2017-11-21T05:32:24.243Z,97.22
2017-11-21T05:33:34.524Z,97.22
2017-11-21T05:34:44.486Z,97.5
2017-11-21T05:35:54.789Z,96.74
2017-11-21T05:37:05.088Z,96.64
2017-11-21T05:38:15.341Z,97.31
2017-11-21T05:39:25.605Z,97.41
2017-11-21T05:40:35.593Z,97.22
2017-11-21T05:41:45.903Z,97.22
2017-11-21T05:42:56.188Z,97.31
2017-11-21T05:44:06.206Z,96.64
2017-11-21T05:45:16.508Z,97.02
2017-11-21T05:46:26.517Z,97.02
2017-11-21T05:47:36.839Z,96.83
2017-11-21T05:48:47.184Z,96.93
2017-11-21T05:49:57.477Z,97.31
2017-11-21T05:51:07.776Z,97.31
2017-11-21T05:52:18.047Z,97.6
2017-11-21T05:53:28.367Z,97.22
2017-11-21T05:54:38.701Z,97.5
2017-11-21T05:55:48.686Z,96.93
2017-11-21T05:56:59.009Z,96.83
2017-11-21T05:58:09.005Z,97.22
2017-11-21T05:59:19.260Z,97.12
2017-11-21T06:00:29.598Z,97.22
2017-11-21T06:01:39.863Z,97.12
2017-11-21T06:02:49.936Z,97.22
2017-11-21T06:04:00.230Z,96.74
2017-11-21T06:05:09.987Z,97.02
2017-11-21T06:06:20.313Z,97.5
2017-11-21T06:07:30.670Z,97.31
2017-11-21T06:08:41.060Z,97.31
2017-11-21T06:09:51.315Z,97.41
2017-11-21T06:11:01.638Z,97.5
2017-11-21T06:12:11.931Z,97.41
2017-11-21T06:13:22.211Z,97.5
2017-11-21T06:14:32.238Z,97.41
2017-11-21T06:15:42.548Z,96.74
2017-11-21T06:16:52.616Z,97.22
2017-11-21T06:18:02.901Z,97.22
2017-11-21T06:19:13.187Z,97.5
2017-11-21T06:20:23.501Z,97.31
2017-11-21T06:21:33.233Z,97.31
2017-11-21T06:22:43.189Z,97.07
2017-11-21T06:23:53.199Z,97.17
2017-11-21T06:25:03.243Z,97.36
2017-11-21T06:26:13.516Z,97.17
2017-11-21T06:27:23.604Z,97.27
2017-11-21T06:28:33.888Z,97.22
2017-11-21T06:29:43.726Z,97.27
2017-11-21T06:30:53.984Z,97.45
2017-11-21T06:32:04.117Z,97.55
2017-11-21T06:33:14.022Z,97.02
2017-11-21T06:34:24.138Z,97.5
2017-11-21T06:35:34.175Z,97.31
2017-11-21T06:36:44.699Z,97.31
2017-11-21T06:37:54.998Z,97.31
2017-11-21T06:39:05.258Z,96.64
2017-11-21T06:40:15.581Z,97.41
2017-11-21T06:41:25.859Z,97.31
2017-11-21T06:42:35.746Z,97.41
2017-11-21T06:43:45.747Z,97.41
2017-11-21T06:44:55.874Z,97.12
2017-11-21T06:46:05.876Z,97.41
2017-11-21T06:47:15.950Z,97.41
2017-11-21T06:48:26.222Z,97.22
2017-11-21T06:49:36.109Z,97.31
2017-11-21T06:50:46.044Z,97.02
2017-11-21T06:51:56.302Z,97.12
2017-11-21T06:53:06.301Z,97.97
2017-11-21T06:54:16.691Z,97.78
2017-11-21T06:55:27.026Z,97.69
2017-11-21T06:56:36.660Z,97.88
2017-11-21T06:57:46.973Z,97.69
2017-11-21T06:58:57.290Z,97.88
2017-11-21T07:00:07.559Z,97.6
2017-11-21T07:01:17.206Z,97.69
2017-11-21T07:02:27.457Z,97.31
2017-11-21T07:03:37.710Z,97.5
2017-11-21T07:04:48.219Z,97.5
2017-11-21T07:05:58.506Z,97.78
2017-11-21T07:07:08.407Z,97.78
2017-11-21T07:08:18.806Z,98.07
2017-11-21T07:09:28.811Z,97.78
2017-11-21T07:10:39.063Z,97.74
2017-11-21T07:11:49.377Z,97.83
2017-11-21T07:12:59.875Z,97.74
2017-11-21T07:14:10.190Z,97.83
2017-11-21T07:15:20.432Z,98.16
2017-11-21T07:16:30.948Z,97.92
2017-11-21T07:17:41.225Z,97.83
2017-11-21T07:18:51.536Z,98.69
2017-11-21T07:20:01.807Z,98.35
2017-11-21T07:21:11.831Z,98.31
2017-11-21T07:22:22.140Z,98.31
2017-11-21T07:23:32.023Z,98.59
2017-11-21T07:24:42.402Z,98.5
2017-11-21T07:25:52.687Z,98.31
2017-11-21T07:27:03.032Z,98.59
2017-11-21T07:28:13.301Z,98.31
2017-11-21T07:29:23.445Z,98.69
2017-11-21T07:30:33.730Z,98.4
2017-11-21T07:31:43.603Z,98.4
2017-11-21T07:32:53.786Z,98.59
2017-11-21T07:34:04.080Z,98.59
2017-11-21T07:35:14.119Z,98.69
2017-11-21T07:36:24.251Z,98.4
2017-11-21T07:37:34.538Z,98.4
2017-11-21T07:38:44.834Z,98.5
2017-11-21T07:39:55.102Z,98.4
2017-11-21T07:41:05.363Z,98.5
2017-11-21T07:42:15.603Z,98.5
2017-11-21T07:43:25.532Z,99.44
2017-11-21T07:44:35.585Z,99.07
2017-11-21T07:45:45.634Z,99.16
2017-11-21T07:46:55.325Z,98.88
2017-11-21T07:48:05.327Z,99.26
2017-11-21T07:49:15.550Z,99.16
2017-11-21T07:50:25.833Z,98.97
2017-11-21T07:51:35.825Z,99.26
2017-11-21T07:52:45.949Z,98.97
2017-11-21T07:53:56.204Z,99.07
2017-11-21T07:55:06.467Z,98.97
2017-11-21T07:56:16.113Z,99.02
2017-11-21T07:57:26.005Z,98.88
2017-11-21T07:58:36.314Z,98.93
2017-11-21T07:59:46.686Z,98.93
2017-11-21T08:00:57.161Z,99.4
2017-11-21T08:02:07.424Z,99.21
2017-11-21T08:03:17.807Z,99.5
2017-11-21T08:04:28.132Z,98.93
2017-11-21T08:05:38.261Z,98.83
2017-11-21T08:06:48.575Z,98.93
2017-11-21T08:07:58.305Z,98.93
2017-11-21T08:09:08.310Z,99.02
2017-11-21T08:10:18.570Z,99.11
2017-11-21T08:11:28.904Z,98.93
2017-11-21T08:12:39.219Z,98.83
2017-11-21T08:13:48.860Z,98.64
2017-11-21T08:14:59.160Z,99.02
2017-11-21T08:16:09.407Z,98.64
2017-11-21T08:17:19.729Z,98.83
2017-11-21T08:18:29.999Z,99.3
2017-11-21T08:19:40.273Z,99.11
2017-11-21T08:20:50.298Z,99.21
2017-11-21T08:22:00.598Z,99.11
2017-11-21T08:23:10.768Z,99.11
2017-11-21T08:24:20.759Z,99.11
2017-11-21T08:25:30.863Z,99.4
2017-11-21T08:26:41.414Z,99.4
2017-11-21T08:27:51.537Z,99.4
2017-11-21T08:29:01.809Z,99.4
2017-11-21T08:30:12.276Z,99.02
2017-11-21T08:31:22.267Z,99.36
2017-11-21T08:32:32.307Z,99.3
2017-11-21T08:33:42.658Z,99.16
2017-11-21T08:34:52.918Z,99.36
2017-11-21T08:36:03.069Z,99.21
2017-11-21T08:37:13.369Z,99.11
2017-11-21T08:38:23.656Z,99.26
2017-11-21T08:39:33.959Z,99.21
2017-11-21T08:40:44.275Z,99.64
2017-11-21T08:41:54.624Z,99.16
2017-11-21T08:43:05.004Z,99.26
2017-11-21T08:44:15.037Z,99.45
2017-11-21T08:45:25.322Z,99.26
2017-11-21T08:46:35.625Z,99.74
2017-11-21T08:47:45.981Z,99.07
2017-11-21T08:48:55.911Z,99.26
2017-11-21T08:50:06.068Z,99.16
2017-11-21T08:51:15.899Z,99.26
2017-11-21T08:52:26.214Z,99.26
2017-11-21T08:53:36.749Z,99.16
2017-11-21T08:54:47.061Z,99.45
2017-11-21T08:55:57.073Z,98.97
2017-11-21T08:57:07.104Z,98.6
2017-11-21T08:58:17.010Z,98.6
2017-11-21T08:59:27.007Z,98.88
2017-11-21T09:00:37.512Z,98.88
2017-11-21T09:01:47.512Z,98.97
2017-11-21T09:02:57.549Z,99.16
2017-11-21T09:04:07.837Z,99.07
2017-11-21T09:05:17.867Z,99.26
2017-11-21T09:06:28.125Z,99.26
2017-11-21T09:07:38.403Z,99.07
2017-11-21T09:08:48.727Z,99.07
2017-11-21T09:09:59.077Z,98.97
2017-11-21T09:11:09.436Z,98.79
2017-11-21T09:12:19.727Z,98.79
2017-11-21T09:13:29.725Z,99.16
2017-11-21T09:14:39.736Z,98.79
2017-11-21T09:15:50.048Z,99.07
2017-11-21T09:17:00.314Z,98.88
2017-11-21T09:18:10.628Z,98.88
2017-11-21T09:19:20.897Z,98.97
2017-11-21T09:20:31.163Z,99.36
2017-11-21T09:21:41.302Z,99.55
2017-11-21T09:22:51.589Z,99.64
2017-11-21T09:24:01.876Z,99.36
2017-11-21T09:25:44.068Z,99.26
2017-11-21T09:26:54.353Z,99.45
2017-11-21T09:28:04.357Z,99.26
2017-11-21T09:29:14.663Z,99.26
2017-11-21T09:30:25.054Z,99.26
2017-11-21T09:31:35.344Z,99.16
2017-11-21T09:32:45.630Z,99.31
2017-11-21T09:33:55.903Z,99.31
2017-11-21T09:35:05.647Z,99.12
2017-11-21T09:36:15.909Z,99.41
2017-11-21T09:37:25.923Z,99.31
2017-11-21T09:38:36.221Z,99.31
2017-11-21T09:39:46.496Z,99.6
2017-11-21T09:40:56.456Z,99.5
2017-11-21T09:42:06.522Z,99.12
2017-11-21T09:43:16.807Z,99.41
2017-11-21T09:44:27.112Z,99.41
2017-11-21T09:45:37.507Z,99.6
2017-11-21T09:46:47.375Z,99.41
2017-11-21T09:47:57.525Z,99.5
2017-11-21T09:49:07.796Z,99.5
2017-11-21T09:50:17.806Z,99.79
2017-11-21T09:51:27.723Z,99.41
2017-11-21T09:52:38.007Z,99.41
2017-11-21T09:53:47.685Z,99.98
2017-11-21T09:54:58.198Z,99.99
2017-11-21T09:56:08.486Z,99.99
2017-11-21T09:57:18.768Z,99.88
2017-11-21T09:58:28.160Z,99.98
2017-11-21T09:59:38.499Z,99.99
2017-11-21T10:00:48.806Z,99.99
2017-11-21T10:01:58.971Z,99.99
2017-11-21T10:03:08.708Z,99.98
2017-11-21T10:04:18.612Z,99.88
2017-11-21T10:05:28.954Z,99.98
2017-11-21T10:06:39.249Z,99.99
2017-11-21T10:07:49.557Z,99.99
2017-11-21T10:08:59.959Z,99.99
2017-11-21T10:10:09.702Z,99.99
2017-11-21T10:11:20.007Z,99.99
2017-11-21T10:12:30.638Z,99.99
2017-11-21T10:13:40.940Z,99.99
2017-11-21T10:14:51.054Z,99.99
2017-11-21T10:16:00.682Z,99.99
2017-11-21T10:17:11.249Z,99.99
2017-11-21T10:18:21.301Z,99.99
2017-11-21T10:19:31.340Z,99.99
2017-11-21T10:20:41.374Z,99.99
2017-11-21T10:21:51.379Z,99.93
2017-11-21T10:23:01.713Z,99.99
2017-11-21T10:24:11.469Z,99.99
2017-11-21T10:25:21.514Z,99.84
2017-11-21T10:26:31.805Z,99.99
2017-11-21T10:27:42.065Z,99.99
2017-11-21T10:28:52.363Z,99.99
2017-11-21T10:30:02.699Z,99.99
2017-11-21T10:31:12.580Z,99.99
2017-11-21T10:32:23.079Z,99.99
2017-11-21T10:33:33.367Z,99.99
2017-11-21T10:34:43.665Z,99.99
2017-11-21T10:35:54.084Z,99.99
2017-11-21T10:37:04.086Z,99.99
2017-11-21T10:38:14.412Z,99.99
2017-11-21T10:39:24.710Z,99.99
2017-11-21T10:40:35.023Z,99.99
2017-11-21T10:41:45.317Z,99.99
2017-11-21T10:42:55.602Z,99.99
2017-11-21T10:44:05.586Z,99.99
2017-11-21T10:45:15.583Z,99.99
2017-11-21T10:46:26.153Z,99.99
2017-11-21T10:47:36.431Z,99.99
2017-11-21T10:48:46.712Z,99.99
2017-11-21T10:49:56.717Z,99.99
2017-11-21T10:51:06.725Z,99.99
2017-11-21T10:52:17.084Z,99.99
2017-11-21T10:53:27.365Z,99.99
2017-11-21T10:54:37.645Z,99.99
2017-11-21T10:55:47.695Z,99.99
2017-11-21T10:56:57.441Z,99.99
2017-11-21T10:58:07.959Z,99.99
2017-11-21T10:59:18.260Z,99.99
2017-11-21T11:00:28.760Z,99.99
2017-11-21T11:01:39.052Z,99.99
2017-11-21T11:02:49.423Z,99.99
2017-11-21T11:03:59.784Z,99.99
2017-11-21T11:05:10.173Z,99.99
2017-11-21T11:06:20.388Z,99.99
2017-11-21T11:07:30.661Z,99.99
2017-11-21T11:08:40.942Z,99.99
2017-11-21T11:09:51.234Z,99.99
2017-11-21T11:11:01.314Z,99.99
2017-11-21T11:12:11.627Z,99.99
2017-11-21T11:13:21.917Z,99.99
2017-11-21T11:14:31.917Z,99.99
2017-11-21T11:15:42.242Z,99.99
2017-11-21T11:16:52.539Z,99.99
2017-11-21T11:18:02.566Z,99.99
2017-11-21T11:19:12.906Z,99.99
2017-11-21T11:20:23.170Z,99.99
2017-11-21T11:21:33.192Z,99.99
2017-11-21T11:22:43.526Z,99.99
2017-11-21T11:23:53.830Z,99.99
2017-11-21T11:25:04.126Z,99.99
2017-11-21T11:26:14.435Z,99.99
2017-11-21T11:27:24.742Z,99.99
2017-11-21T11:28:34.770Z,99.99
2017-11-21T11:29:45.062Z,99.99
2017-11-21T11:30:55.471Z,99.99
2017-11-21T11:32:05.773Z,99.99
2017-11-21T11:33:16.098Z,99.99
2017-11-21T11:34:26.409Z,99.99
2017-11-21T11:35:36.772Z,99.99
2017-11-21T11:36:46.160Z,99.99
2017-11-21T11:37:56.472Z,99.99
2017-11-21T11:39:06.769Z,99.99
2017-11-21T11:40:17.053Z,99.99
2017-11-21T11:41:27.159Z,99.99
2017-11-21T11:42:37.429Z,99.98
2017-11-21T11:43:47.711Z,99.99
2017-11-21T11:44:58.082Z,99.99
2017-11-21T11:46:08.044Z,99.99
2017-11-21T11:47:18.338Z,99.98
2017-11-21T11:48:28.631Z,99.89
2017-11-21T11:49:38.572Z,99.98
2017-11-21T11:50:48.669Z,99.93
2017-11-21T11:51:59.260Z,99.89
2017-11-21T11:53:09.341Z,99.89
2017-11-21T11:54:19.621Z,99.99
2017-11-21T11:55:30.021Z,99.99
2017-11-21T11:56:40.405Z,99.93
2017-11-21T11:57:50.337Z,99.65
2017-11-21T11:59:00.732Z,99.99
2017-11-21T12:00:10.748Z,99.99
2017-11-21T12:01:21.032Z,99.99
2017-11-21T12:02:31.346Z,99.99
2017-11-21T12:03:41.627Z,99.99
2017-11-21T12:04:51.939Z,99.99
2017-11-21T12:06:02.168Z,99.98
2017-11-21T12:07:12.492Z,99.99
2017-11-21T12:08:22.793Z,99.79
2017-11-21T12:09:32.800Z,99.41
2017-11-21T12:10:43.153Z,99.41
2017-11-21T12:11:53.464Z,99.6
2017-11-21T12:13:03.524Z,99.6
2017-11-21T12:14:28.566Z,99.32
2017-11-21T12:15:38.876Z,98.98
2017-11-21T12:16:49.159Z,99.03
2017-11-21T12:17:59.491Z,98.65
2017-11-21T12:19:09.709Z,98.84
2017-11-21T12:20:20.077Z,98.84
2017-11-21T12:21:30.093Z,99.03
2017-11-21T12:22:40.093Z,98.84
2017-11-21T12:23:50.463Z,98.65
2017-11-21T12:25:00.769Z,99.13
2017-11-21T12:26:11.096Z,99.03
2017-11-21T12:27:21.119Z,99.22
2017-11-21T12:28:31.426Z,98.94
2017-11-21T12:29:41.720Z,98.94
2017-11-21T12:30:52.090Z,98.94
2017-11-21T12:32:02.451Z,99.03
2017-11-21T12:33:12.821Z,99.03
2017-11-21T12:34:23.104Z,98.84
2017-11-21T12:35:33.109Z,99.22
2017-11-21T12:36:43.462Z,99.03
2017-11-21T12:37:53.798Z,99.03
2017-11-21T12:39:04.098Z,98.94
2017-11-21T12:40:14.442Z,98.74
2017-11-21T12:41:24.750Z,99.22
2017-11-21T12:42:35.197Z,99.03
2017-11-21T12:43:45.528Z,99.22
2017-11-21T12:44:55.642Z,99.22
2017-11-21T12:46:05.720Z,99.22
2017-11-21T12:47:15.992Z,98.84
2017-11-21T12:48:26.334Z,99.13
2017-11-21T12:49:36.655Z,98.84
2017-11-21T12:50:47.012Z,98.84
2017-11-21T12:51:57.459Z,99.03
2017-11-21T12:53:07.732Z,99.32
2017-11-21T12:54:18.027Z,98.74
2017-11-21T12:55:28.082Z,99.22
2017-11-21T12:56:38.392Z,99.13
2017-11-21T12:57:48.333Z,99.13
2017-11-21T12:58:58.318Z,99.22
2017-11-21T13:00:08.362Z,99.03
2017-11-21T13:01:18.748Z,99.22
2017-11-21T13:02:28.889Z,99.03
2017-11-21T13:03:38.897Z,99.13
2017-11-21T13:04:49.265Z,98.84
2017-11-21T13:05:59.564Z,98.84
2017-11-21T13:07:09.943Z,98.74
2017-11-21T13:08:20.261Z,98.74
2017-11-21T13:09:30.601Z,98.94
2017-11-21T13:10:40.609Z,98.84
2017-11-21T13:11:50.604Z,99.03
2017-11-21T13:13:00.962Z,98.84
2017-11-21T13:14:11.098Z,98.84
2017-11-21T13:15:21.421Z,99.03
2017-11-21T13:16:31.479Z,98.74
2017-11-21T13:17:41.833Z,99.13
2017-11-21T13:18:51.838Z,99.13
2017-11-21T13:20:02.400Z,98.74
2017-11-21T13:21:12.435Z,98.74
2017-11-21T13:22:22.738Z,98.94
2017-11-21T13:23:33.039Z,98.94
2017-11-21T13:24:43.091Z,98.65
2017-11-21T13:25:53.412Z,99.03
2017-11-21T13:27:03.692Z,99.03
2017-11-21T13:28:14.016Z,99.13
2017-11-21T13:29:24.422Z,98.94
2017-11-21T13:30:34.823Z,98.84
2017-11-21T13:31:45.096Z,99.03
2017-11-21T13:32:55.349Z,98.84
2017-11-21T13:34:05.700Z,99.03
2017-11-21T13:35:16.030Z,98.84
2017-11-21T13:36:26.060Z,98.84
2017-11-21T13:37:36.402Z,99.08
2017-11-21T13:38:46.457Z,99.17
2017-11-21T13:39:57.008Z,98.79
2017-11-21T13:41:07.291Z,99.17
2017-11-21T13:42:17.403Z,99.65
2017-11-21T13:43:27.684Z,99.46
2017-11-21T13:44:38.042Z,99.55
2017-11-21T13:45:48.322Z,99.17
2017-11-21T13:46:58.840Z,99.17
2017-11-21T13:48:09.466Z,99.55
2017-11-21T13:49:19.825Z,99.46
2017-11-21T13:50:29.886Z,99.36
2017-11-21T13:51:39.956Z,99.36
2017-11-21T13:52:50.047Z,99.36
2017-11-21T13:54:00.550Z,99.08
2017-11-21T13:55:10.909Z,99.74
2017-11-21T13:56:21.487Z,99.99
2017-11-21T13:57:31.384Z,99.99
2017-11-21T13:58:41.732Z,99.65
2017-11-21T13:59:52.033Z,99.99
2017-11-21T14:01:02.070Z,99.93
2017-11-21T14:02:12.101Z,99.99
2017-11-21T14:03:22.472Z,99.99
2017-11-21T14:04:32.814Z,99.99
2017-11-21T14:05:42.903Z,99.99
2017-11-21T14:06:53.192Z,99.99
2017-11-21T14:08:03.543Z,99.93
2017-11-21T14:09:13.456Z,99.99
2017-11-21T14:10:23.515Z,99.93
2017-11-21T14:11:33.828Z,99.99
2017-11-21T14:12:44.101Z,99.99
2017-11-21T14:13:54.420Z,99.99
2017-11-21T14:15:04.939Z,99.99
2017-11-21T14:16:15.323Z,99.99
2017-11-21T14:17:25.620Z,99.99
2017-11-21T14:18:35.533Z,99.99
2017-11-21T14:19:45.488Z,99.99
2017-11-21T14:20:55.884Z,99.99
2017-11-21T14:22:06.045Z,99.99
2017-11-21T14:23:16.378Z,99.99
2017-11-21T14:24:25.758Z,99.99
2017-11-21T14:25:36.687Z,99.99
2017-11-21T14:26:46.737Z,99.99
2017-11-21T14:27:56.681Z,99.99
2017-11-21T14:29:06.982Z,99.99
2017-11-21T14:30:17.395Z,99.99
2017-11-21T14:31:27.737Z,99.99
2017-11-21T14:32:37.907Z,99.99
2017-11-21T14:33:48.220Z,99.99
2017-11-21T14:34:58.514Z,99.99
2017-11-21T14:36:09.030Z,99.99
2017-11-21T14:37:19.349Z,99.99
2017-11-21T14:38:29.232Z,99.99
2017-11-21T14:39:39.555Z,99.99
2017-11-21T14:40:49.707Z,99.99
2017-11-21T14:42:00.030Z,99.99
2017-11-21T14:43:10.460Z,99.99
2017-11-21T14:44:20.809Z,99.99
2017-11-21T14:45:30.754Z,99.99
2017-11-21T14:46:40.885Z,99.99
2017-11-21T14:47:51.303Z,99.99
2017-11-21T14:49:01.630Z,99.99
2017-11-21T14:50:12.217Z,99.99
2017-11-21T14:51:22.488Z,99.99
2017-11-21T14:52:32.808Z,99.99
2017-11-21T14:53:42.507Z,99.99
2017-11-21T14:54:52.791Z,99.99
2017-11-21T14:56:02.839Z,99.99
2017-11-21T14:57:12.582Z,99.99
2017-11-21T14:58:22.948Z,99.99
2017-11-21T14:59:33.277Z,99.99
2017-11-21T15:00:43.564Z,99.99
2017-11-21T15:01:53.942Z,99.99
2017-11-21T15:03:03.980Z,99.99
2017-11-21T15:04:14.007Z,99.99
2017-11-21T15:05:24.090Z,99.99
2017-11-21T15:06:34.428Z,99.99
2017-11-21T15:07:44.696Z,99.99